createdAt,value
2018-04-26T00:01:52.775Z,58.00
2018-04-26T00:06:56.044Z,58.00
2018-04-26T00:11:59.283Z,55.90
2018-04-26T00:17:03.316Z,59.90
2018-04-26T00:22:06.588Z,59.80
2018-04-26T00:27:09.856Z,59.70
2018-04-26T00:32:13.119Z,58.70
2018-04-26T00:37:16.380Z,59.10
2018-04-26T00:42:19.843Z,58.30
2018-04-26T00:47:23.102Z,59.10
2018-04-26T00:52:26.365Z,58.80
2018-04-26T00:57:30.387Z,59.30
2018-04-26T01:02:33.667Z,59.50
2018-04-26T01:07:37.915Z,61.20
2018-04-26T01:12:41.172Z,60.40
2018-04-26T01:17:44.444Z,62.50
2018-04-26T01:22:47.716Z,62.60
2018-04-26T01:27:50.975Z,63.70
2018-04-26T01:32:54.988Z,62.90
2018-04-26T01:37:58.242Z,63.00
2018-04-26T01:43:01.516Z,61.60
2018-04-26T01:48:04.789Z,62.10
2018-04-26T01:53:08.059Z,64.60
2018-04-26T01:58:11.335Z,62.60
2018-04-26T02:03:15.467Z,64.50
2018-04-26T02:08:19.500Z,62.30
2018-04-26T02:13:22.773Z,62.30
2018-04-26T02:18:26.029Z,64.10
2018-04-26T02:23:29.297Z,63.00
2018-04-26T02:28:33.326Z,63.40
2018-04-26T02:33:36.590Z,65.50
2018-04-26T02:38:41.504Z,65.60
2018-04-26T02:43:44.815Z,65.70
2018-04-26T02:48:48.833Z,65.90
2018-04-26T02:53:52.859Z,64.80
2018-04-26T02:58:56.104Z,64.80
2018-04-26T03:03:59.356Z,67.60
2018-04-26T03:09:03.377Z,73.70
2018-04-26T03:14:06.623Z,73.70
2018-04-26T03:19:09.864Z,73.80
2018-04-26T03:24:13.121Z,77.40
2018-04-26T03:29:16.374Z,74.30
2018-04-26T03:34:19.622Z,72.70
2018-04-26T03:39:23.635Z,75.70
2018-04-26T03:44:27.786Z,74.60
2018-04-26T03:49:31.035Z,74.60
2018-04-26T03:54:34.283Z,75.60
2018-04-26T03:59:49.351Z,73.30
2018-04-26T04:05:04.487Z,75.80
2018-04-26T04:10:07.751Z,70.80
2018-04-26T04:15:11.008Z,75.10
2018-04-26T04:20:14.263Z,74.60
2018-04-26T04:25:17.516Z,73.40
2018-04-26T04:30:20.774Z,69.80
2018-04-26T04:35:24.886Z,72.00
2018-04-26T04:40:28.118Z,75.00
2018-04-26T04:45:31.397Z,73.90
2018-04-26T04:50:34.682Z,75.80
2018-04-26T04:55:37.932Z,73.00
2018-04-26T05:00:42.093Z,76.20
2018-04-26T05:05:45.335Z,74.50
2018-04-26T05:10:48.587Z,70.90
2018-04-26T05:15:51.832Z,71.10
2018-04-26T05:20:55.180Z,71.20
2018-04-26T05:25:58.412Z,74.00
2018-04-26T05:31:01.660Z,76.40
2018-04-26T05:36:04.909Z,78.50
2018-04-26T05:41:08.163Z,77.20
2018-04-26T05:46:11.435Z,75.30
2018-04-26T05:51:14.686Z,78.50
2018-04-26T05:56:17.940Z,79.70
2018-04-26T06:01:23.038Z,77.20
2018-04-26T06:06:28.864Z,76.90
2018-04-26T06:11:32.088Z,76.80
2018-04-26T06:16:36.228Z,77.50
2018-04-26T06:21:39.475Z,75.50
2018-04-26T06:26:42.714Z,76.20
2018-04-26T06:31:46.491Z,74.60
2018-04-26T06:36:49.837Z,70.20
2018-04-26T06:41:53.014Z,69.90
2018-04-26T06:46:56.327Z,68.40
2018-04-26T06:52:00.343Z,64.50
2018-04-26T06:57:03.586Z,64.40
2018-04-26T07:02:06.843Z,69.40
2018-04-26T07:07:10.854Z,65.70
2018-04-26T07:12:14.117Z,65.80
2018-04-26T07:17:17.355Z,71.10
2018-04-26T07:22:20.612Z,66.20
2018-04-26T07:27:23.866Z,65.90
2018-04-26T07:32:27.119Z,63.50
2018-04-26T07:37:30.379Z,63.50
2018-04-26T07:42:33.631Z,63.00
2018-04-26T07:47:36.898Z,62.80
2018-04-26T07:52:40.151Z,65.40
2018-04-26T07:57:43.409Z,64.40
2018-04-26T08:02:46.683Z,64.80
2018-04-26T08:07:49.944Z,60.40
2018-04-26T08:12:53.248Z,59.00
2018-04-26T08:17:56.499Z,60.50
2018-04-26T08:22:59.747Z,59.10
2018-04-26T08:28:03.021Z,56.60
2018-04-26T08:33:06.259Z,53.60
2018-04-26T08:38:09.520Z,54.90
2018-04-26T08:43:12.767Z,52.70
2018-04-26T08:48:16.093Z,50.80
2018-04-26T08:53:19.351Z,47.20
2018-04-26T08:58:22.642Z,50.80
2018-04-26T09:03:25.897Z,53.50
2018-04-26T09:08:29.159Z,54.30
2018-04-26T09:13:33.173Z,50.80
2018-04-26T09:18:36.417Z,50.50
2018-04-26T09:23:39.667Z,52.90
2018-04-26T09:28:42.928Z,51.80
2018-04-26T09:33:46.179Z,51.40
2018-04-26T09:38:49.538Z,50.30
2018-04-26T09:43:52.690Z,51.60
2018-04-26T09:48:55.964Z,49.70
2018-04-26T09:53:59.216Z,43.60
2018-04-26T09:59:02.476Z,46.10
2018-04-26T10:04:11.468Z,43.00
2018-04-26T10:09:14.719Z,45.10
2018-04-26T10:14:17.989Z,47.80
2018-04-26T10:19:21.232Z,48.40
2018-04-26T10:24:25.264Z,45.80
2018-04-26T10:29:28.523Z,44.60
2018-04-26T10:34:31.770Z,47.40
2018-04-26T10:39:35.787Z,45.10
2018-04-26T10:44:39.053Z,45.00
2018-04-26T10:49:42.371Z,42.20
2018-04-26T10:54:45.623Z,46.00
2018-04-26T10:59:49.648Z,47.70
2018-04-26T11:04:52.910Z,47.70
2018-04-26T11:09:57.043Z,45.60
2018-04-26T11:15:00.369Z,45.10
2018-04-26T11:20:04.380Z,46.40
2018-04-26T11:25:07.632Z,44.40
2018-04-26T11:30:13.601Z,39.20
2018-04-26T11:35:22.008Z,38.20
2018-04-26T11:40:25.255Z,33.60
2018-04-26T11:45:28.513Z,36.30
2018-04-26T11:50:32.548Z,39.00
2018-04-26T11:55:35.815Z,38.70
2018-04-26T12:00:39.092Z,40.50
2018-04-26T12:05:42.376Z,43.80
2018-04-26T12:10:45.692Z,51.10
2018-04-26T12:15:49.703Z,42.40
2018-04-26T12:20:52.964Z,41.90
2018-04-26T12:25:57.055Z,44.80
2018-04-26T12:31:01.069Z,45.10
2018-04-26T12:36:04.355Z,45.10
2018-04-26T12:41:07.628Z,44.70
2018-04-26T12:46:10.883Z,40.80
2018-04-26T12:51:14.197Z,36.10
2018-04-26T12:56:17.452Z,32.90
2018-04-26T13:01:20.719Z,35.00
2018-04-26T13:06:23.984Z,40.70
2018-04-26T13:11:27.236Z,42.40
2018-04-26T13:16:30.483Z,45.80
2018-04-26T13:21:33.735Z,56.90
2018-04-26T13:26:36.979Z,59.30
2018-04-26T13:31:40.235Z,57.70
2018-04-26T13:36:43.491Z,51.70
2018-04-26T13:41:46.731Z,47.30
2018-04-26T13:46:49.988Z,43.10
2018-04-26T13:51:54.018Z,44.20
2018-04-26T13:56:57.267Z,43.70
2018-04-26T14:02:00.522Z,46.10
2018-04-26T14:07:04.563Z,48.90
2018-04-26T14:12:08.588Z,46.50
2018-04-26T14:17:12.612Z,48.10
2018-04-26T14:22:15.852Z,48.60
2018-04-26T14:27:20.121Z,50.20
2018-04-26T14:32:23.375Z,51.40
2018-04-26T14:37:26.668Z,46.00
2018-04-26T14:42:30.631Z,43.60
2018-04-26T14:47:33.890Z,43.00
2018-04-26T14:52:37.171Z,43.00
2018-04-26T15:05:48.968Z,52.70
2018-04-26T15:10:52.313Z,52.30
2018-04-26T15:15:55.573Z,49.10
2018-04-26T15:20:58.832Z,44.70
2018-04-26T15:26:02.096Z,48.50
2018-04-26T15:31:28.531Z,48.80
2018-04-26T15:36:31.822Z,49.60
2018-04-26T15:41:35.084Z,50.60
2018-04-26T15:46:38.963Z,46.70
2018-04-26T15:51:42.208Z,45.60
2018-04-26T15:56:57.433Z,47.50
2018-04-26T16:02:32.135Z,45.00
2018-04-26T16:07:53.601Z,46.10
2018-04-26T16:13:29.956Z,45.50
2018-04-26T16:18:45.999Z,42.30
2018-04-26T16:24:04.028Z,42.30
2018-04-26T16:29:24.977Z,37.60
2018-04-26T16:34:49.760Z,41.90
2018-04-26T16:39:52.999Z,43.40
2018-04-26T16:44:56.260Z,45.80
2018-04-26T16:49:59.510Z,48.30
2018-04-26T16:55:02.791Z,49.00
2018-04-26T17:00:06.214Z,46.90
2018-04-26T17:05:10.280Z,48.40
2018-04-26T17:10:13.526Z,48.40
2018-04-26T17:15:19.513Z,46.80
2018-04-26T17:20:22.764Z,46.70
2018-04-26T17:25:26.018Z,47.50
2018-04-26T17:30:29.282Z,48.00
2018-04-26T17:35:32.543Z,49.40
2018-04-26T17:40:35.822Z,49.50
2018-04-26T17:45:39.105Z,49.00
2018-04-26T17:50:42.384Z,48.60
2018-04-26T17:55:45.652Z,48.50
2018-04-26T18:00:48.913Z,49.20
2018-04-26T18:05:52.195Z,48.50
2018-04-26T18:10:55.468Z,48.60
2018-04-26T18:15:58.729Z,51.60
2018-04-26T18:21:02.003Z,50.50
2018-04-26T18:26:05.276Z,52.20
2018-04-26T18:31:09.312Z,54.10
2018-04-26T18:36:13.780Z,53.30
2018-04-26T18:41:17.804Z,56.30
2018-04-26T18:46:21.091Z,56.30
2018-04-26T18:51:24.429Z,54.70
2018-04-26T18:56:27.642Z,57.90
2018-04-26T19:01:30.928Z,60.40
2018-04-26T19:06:34.176Z,57.90
2018-04-26T19:11:37.426Z,58.70
2018-04-26T19:16:40.715Z,59.50
2018-04-26T19:21:43.972Z,64.10
2018-04-26T19:26:48.050Z,67.20
2018-04-26T19:31:51.284Z,66.50
2018-04-26T19:36:54.558Z,66.10
2018-04-26T19:41:57.815Z,69.50
2018-04-26T19:47:01.108Z,69.00
2018-04-26T19:52:04.359Z,68.40
2018-04-26T19:57:07.628Z,72.40
2018-04-26T20:02:10.964Z,73.20
2018-04-26T20:07:20.482Z,74.40
2018-04-26T20:12:24.555Z,75.40
2018-04-26T20:17:27.836Z,75.40
2018-04-26T20:22:31.168Z,76.30
2018-04-26T20:27:39.912Z,75.00
2018-04-26T20:32:43.173Z,72.30
2018-04-26T20:37:46.440Z,74.20
2018-04-26T20:42:49.717Z,76.90
2018-04-26T20:47:53.005Z,76.60
2018-04-26T20:52:56.232Z,73.80
2018-04-26T20:57:59.521Z,68.30
2018-04-26T21:03:03.053Z,60.70
2018-04-26T21:08:06.315Z,62.40
2018-04-26T21:13:09.580Z,67.30
2018-04-26T21:18:12.843Z,74.50
2018-04-26T21:23:16.096Z,78.40
2018-04-26T21:28:20.147Z,75.90
2018-04-26T21:33:23.400Z,75.80
2018-04-26T21:38:26.655Z,77.60
2018-04-26T21:43:29.907Z,74.20
2018-04-26T21:48:33.479Z,78.20
2018-04-26T21:53:42.416Z,78.80
2018-04-26T21:58:52.412Z,80.30
2018-04-26T22:04:12.547Z,79.40
2018-04-26T22:09:15.867Z,73.30
2018-04-26T22:14:31.971Z,77.30
2018-04-26T22:19:35.820Z,76.30
2018-04-26T22:24:39.851Z,78.70
2018-04-26T22:29:43.860Z,81.00
2018-04-26T22:34:47.227Z,81.00
2018-04-26T22:39:50.484Z,84.30
2018-04-26T22:44:53.739Z,84.10
2018-04-26T22:49:56.993Z,79.30
2018-04-26T22:55:01.029Z,83.70
2018-04-26T23:00:05.054Z,83.70
2018-04-26T23:05:08.320Z,83.70
2018-04-26T23:10:11.589Z,85.40
2018-04-26T23:15:14.841Z,86.40
2018-04-26T23:20:18.180Z,87.40
2018-04-26T23:25:21.438Z,85.80
2018-04-26T23:30:24.686Z,84.00
2018-04-26T23:35:28.716Z,84.00
2018-04-26T23:40:31.969Z,83.30
2018-04-26T23:45:35.211Z,71.30
2018-04-26T23:50:38.481Z,77.80
2018-04-26T23:55:41.775Z,86.30
